Latest Weather Observations for Falls Creek

IDV60801

Issued at 9:31 am EDT Saturday 28 February 2015 (issued every 30 minutes, with the page automatically refreshed every 10 minutes)

About weather observations | Map of weather stations | Latest weather observations for VIC | Other Formats
Station Details ID: 083084 Name: FALLS CREEK Lat: -36.87 Lon: 147.28 Height: 1765.0 m
Data from the previous 72 hours. | See also: Recent months at Falls Creek
Date/Time
EDT
Temp
°C
App
Temp
°C
Dew
Point
Rel
Hum
%
Delta-T
°C
Wind Press
QNH
hPa
Press
MSL
hPa
Rain
since 9 am
mm
Dir
 
Spd
km/h
Gust
km/h
Spd
kts
Gust
kts
28/09:30am 14.4 8.5 2.0 43 6.0 NNW 22 32 12 17 1016.5 1008.3 0.0
28/09:00am 14.8 9.5 2.0 42 6.2 NW 19 28 10 15 1016.3 1008.0 0.0
28/08:30am 14.6 12.4 5.1 53 4.9 NW 6 7 3 4 1015.9 1007.7 0.0
28/08:00am 14.0 11.7 2.6 46 5.6 WSW 4 7 2 4 1015.9 1007.7 0.0
28/07:30am 13.4 10.0 -1.7 35 6.7 WNW 6 7 3 4 1015.7 1007.4 0.0
28/07:00am 12.9 9.4 -1.1 38 6.3 SSW 7 9 4 5 1015.6 1007.3 0.0
28/06:30am 13.3 9.4 -1.8 35 6.7 NW 9 11 5 6 1015.9 1007.7 0.0
28/06:00am 13.2 8.9 -1.9 35 6.7 NW 11 15 6 8 1015.9 1007.7 0.0
28/05:30am 13.2 8.7 -0.1 40 6.1 WNW 13 17 7 9 1015.7 1007.4 0.0
28/05:00am 13.1 7.9 -0.2 40 6.1 WNW 17 20 9 11 1015.5 1007.2 0.0
28/04:30am 12.8 8.0 0.5 43 5.7 WNW 15 19 8 10 1015.5 1007.2 0.0
28/04:00am 12.8 8.2 1.8 47 5.3 NW 15 19 8 10 1015.6 1007.3 0.0
28/03:30am 12.6 8.7 3.3 53 4.6 WNW 13 15 7 8 1015.8 1007.6 0.0
28/03:00am 12.3 8.9 6.1 66 3.2 NW 13 19 7 10 1016.1 1007.8 0.0
28/02:30am 11.9 8.6 6.4 69 2.9 WNW 13 15 7 8 1016.4 1008.2 0.0
28/02:00am 12.1 8.9 6.8 70 2.8 NNW 13 17 7 9 1016.5 1008.3 0.0
28/01:30am 12.3 8.7 6.6 68 3.0 NW 15 20 8 11 1016.5 1008.3 0.0
28/01:00am 12.6 8.5 4.1 56 4.3 NNW 15 19 8 10 1016.5 1008.3 0.0
28/12:30am 12.6 7.7 4.1 56 4.3 NNW 19 20 10 11 1016.7 1008.4 0.0
28/12:00am 12.7 8.2 4.4 57 4.2 NNW 17 22 9 12 1016.7 1008.4 0.0
 
Date/Time
EDT
Temp
°C
App
Temp
°C
Dew
Point
Rel
Hum
%
Delta-T
°C
Wind Press
QNH
hPa
Press
MSL
hPa
Rain
since 9 am
mm
Dir
 
Spd
km/h
Gust
km/h
Spd
kts
Gust
kts
27/11:30pm 12.7 8.3 4.7 58 4.1 NNW 17 20 9 11 1016.7 1008.4 0.0
27/11:00pm 12.8 8.4 5.0 59 4.0 NNW 17 20 9 11 1016.8 1008.5 0.0
27/10:30pm 12.8 8.6 5.5 61 3.8 NW 17 22 9 12 1016.9 1008.7 0.0
27/10:00pm 12.6 8.3 5.1 60 3.8 NW 17 20 9 11 1017.0 1008.8 0.0
27/09:30pm 12.7 8.4 5.4 61 3.8 NW 17 22 9 12 1016.8 1008.5 0.0
27/09:00pm 12.6 8.9 6.4 66 3.3 NW 15 17 8 9 1016.7 1008.4 0.0
27/08:30pm 12.9 10.4 6.7 66 3.3 N 9 9 5 5 1015.8 1007.6 0.0
27/08:00pm 13.3 11.3 6.4 63 3.6 NNW 6 7 3 4 1016.2 1007.9 0.0
27/07:30pm 13.5 11.1 6.8 64 3.6 WNW 9 11 5 6 1016.3 1008.0 0.0
27/07:00pm 14.7 12.8 7.5 62 3.9 WNW 7 11 4 6 1015.8 1007.6 0.0
27/06:30pm 15.9 13.5 7.1 56 4.8 WSW 9 20 5 11 1015.8 1007.6 0.0
27/06:00pm 15.9 13.1 7.1 56 4.8 WNW 11 20 6 11 1015.7 1007.4 0.0
27/05:30pm 16.7 14.0 7.4 54 5.1 NW 11 20 6 11 1015.6 1007.3 0.0
27/05:00pm 16.6 13.1 7.3 54 5.1 NW 15 24 8 13 1015.6 1007.3 0.0
27/04:30pm 16.7 13.9 8.4 58 4.6 WNW 13 26 7 14 1015.7 1007.4 0.0
27/04:00pm 16.1 11.6 7.1 55 4.9 NW 20 32 11 17 1015.6 1007.3 0.0
27/03:30pm 16.5 13.4 9.0 61 4.2 NNW 15 26 8 14 1015.6 1007.3 0.0
27/03:00pm 15.8 11.6 7.6 58 4.5 N 19 30 10 16 1015.6 1007.3 0.0
27/02:30pm 15.9 11.8 7.7 58 4.5 NW 19 28 10 15 1015.9 1007.7 0.0
27/02:00pm 15.5 11.9 8.3 62 4.0 NNW 17 30 9 16 1016.1 1007.8 0.0
27/01:30pm 15.2 10.8 7.5 60 4.2 NNW 20 32 11 17 1016.1 1007.8 0.0
27/01:00pm 14.7 10.9 9.9 73 2.7 NNW 20 32 11 17 1016.2 1007.9 0.0
27/12:30pm 13.9 9.6 9.5 75 2.5 NNW 22 35 12 19 1016.2 1007.9 0.0
27/12:00pm 13.7 9.5 9.7 77 2.3 NNW 22 37 12 20 1016.3 1008.0 0.0
27/11:30am 12.7 8.5 8.4 75 2.4 NNW 20 32 11 17 1016.5 1008.3 0.0
27/11:00am 12.8 8.3 8.7 76 2.3 NW 22 37 12 20 1016.7 1008.4 0.0
27/10:30am 12.6 7.4 8.7 77 2.1 NW 26 39 14 21 1016.1 1007.8 0.0
27/10:00am 12.6 7.3 8.3 75 2.3 NW 26 43 14 23 1016.1 1007.8 0.0
27/09:30am 11.9 6.5 7.8 76 2.2 NNW 26 43 14 23 1015.6 1007.3 0.0
27/09:00am 11.0 5.4 7.1 77 2.1 NW 26 41 14 22 1015.5 1007.2 0.4
27/08:30am 10.2 3.8 6.9 80 1.7 NNW 30 39 16 21 1014.9 1006.6 0.4
27/08:06am 9.6 3.4 6.1 79 1.8 NNW 28 46 15 25 1014.8 1006.4 0.4
27/08:00am 9.4 2.8 6.1 80 1.7 NW 30 41 16 22 1014.6 1006.3 0.4
27/07:30am 8.8 1.8 6.1 83 1.4 NW 32 43 17 23 1014.2 1005.8 0.4
27/07:00am 8.4 2.5 6.0 85 1.2 NNW 26 39 14 21 1014.0 1005.7 0.4
27/06:30am 8.4 2.5 6.0 85 1.2 NNW 26 37 14 20 1014.0 1005.7 0.4
27/06:00am 8.5 2.8 6.5 87 1.0 NW 26 39 14 21 1014.0 1005.7 0.4
27/05:30am 8.9 3.5 7.8 93 0.6 NW 26 33 14 18 1013.9 1005.6 0.4
27/05:00am 9.1 4.4 9.1 100 0.0 NNW 24 33 13 18 1014.2 1005.8 0.4
27/04:30am 9.4 5.1 9.4 100 0.0 NW 22 32 12 17 1014.3 1006.0 0.4
27/04:00am 10.3 6.3 10.3 100 0.0 NNW 22 33 12 18 1014.5 1006.2 0.4
27/03:30am 10.3 6.8 10.3 100 0.0 NNW 19 30 10 16 1014.8 1006.4 0.4
27/03:00am 10.6 7.0 10.6 100 0.0 NNW 20 28 11 15 1014.9 1006.6 0.4
27/02:30am 10.8 8.6 10.8 100 0.0 NNW 13 19 7 10 1015.1 1006.8 0.4
27/02:00am 10.8 9.7 10.8 100 0.0 N 7 11 4 6 1015.5 1007.2 0.4
27/01:30am 10.9 9.5 10.9 100 0.0 NNW 9 13 5 7 1015.8 1007.6 0.4
27/01:00am 10.8 10.3 10.8 100 0.0 NE 4 13 2 7 1015.9 1007.7 0.4
27/12:30am 10.7 9.8 10.7 100 0.0 E 6 9 3 5 1016.2 1007.9 0.4
27/12:00am 10.6 9.1 10.6 100 0.0 E 9 13 5 7 1016.2 1007.9 0.4
 
Date/Time
EDT
Temp
°C
App
Temp
°C
Dew
Point
Rel
Hum
%
Delta-T
°C
Wind Press
QNH
hPa
Press
MSL
hPa
Rain
since 9 am
mm
Dir
 
Spd
km/h
Gust
km/h
Spd
kts
Gust
kts
26/11:30pm 10.7 8.9 10.7 100 0.0 ESE 11 13 6 7 1016.2 1007.9 0.4
26/11:00pm 10.7 8.9 10.7 100 0.0 ESE 11 17 6 9 1016.3 1008.0 0.2
26/10:30pm 10.8 9.4 10.8 100 0.0 SE 9 13 5 7 1016.4 1008.2 0.2
26/10:00pm 11.0 9.2 11.0 100 0.0 ESE 11 17 6 9 1016.3 1008.0 0.2
26/09:30pm 11.4 10.5 11.4 100 0.0 ESE 7 13 4 7 1016.3 1008.0 0.2
26/09:00pm 11.5 10.6 11.5 100 0.0 SE 7 11 4 6 1016.1 1007.8 0.2
26/08:30pm 11.6 11.0 11.6 100 0.0 SSE 6 11 3 6 1015.6 1007.3 0.2
26/08:00pm 11.7 10.5 11.7 100 0.0 SSE 9 13 5 7 1015.5 1007.2 0.2
26/07:30pm 12.1 10.2 11.9 99 0.1 SE 13 17 7 9 1015.0 1006.7 0.2
26/07:00pm 12.8 12.2 12.2 96 0.4 SE 7 11 4 6 1014.8 1006.4 0.2
26/06:30pm 13.3 12.9 12.4 94 0.5 SE 6 9 3 5 1014.6 1006.3 0.2
26/06:00pm 14.0 14.6 12.0 88 1.2 CALM 0 0 0 0 1014.5 1006.2 0.2
26/05:30pm 14.4 13.4 11.0 80 2.0 W 7 9 4 5 1014.5 1006.2 0.0
26/05:00pm 15.3 14.4 11.5 78 2.2 W 7 15 4 8 1014.5 1006.2 0.0
26/04:30pm 15.1 12.2 9.5 69 3.2 SW 15 20 8 11 1014.6 1006.3 0.0
26/04:00pm 14.5 12.0 9.7 73 2.7 SW 13 22 7 12 1014.5 1006.2 0.0
26/03:30pm 15.1 12.3 8.6 65 3.6 SSW 13 24 7 13 1014.9 1006.6 0.0
26/03:00pm 15.7 13.8 9.1 65 3.7 SW 9 19 5 10 1015.0 1006.7 0.0
26/02:30pm 14.5 11.6 8.0 65 3.6 SW 13 22 7 12 1015.4 1007.1 0.0
26/02:00pm 13.6 11.6 10.0 79 2.0 W 11 19 6 10 1015.4 1007.1 0.0
26/01:30pm 14.2 11.9 10.6 79 2.1 WNW 13 22 7 12 1015.2 1006.9 0.0
26/01:00pm 13.1 10.6 11.0 87 1.2 WNW 15 24 8 13 1015.6 1007.3 0.0
26/12:30pm 12.3 10.9 12.3 100 0.0 WNW 11 17 6 9 1015.5 1007.2 0.0
26/12:00pm 11.5 9.5 11.5 100 0.0 W 13 19 7 10 1015.6 1007.3 0.0
26/11:30am 11.4 9.8 11.4 100 0.0 WNW 11 20 6 11 1015.8 1007.6 0.0
26/11:00am 11.1 8.6 11.1 100 0.0 WNW 15 24 8 13 1016.1 1007.8 0.0
26/10:30am 11.2 9.1 11.2 100 0.0 WNW 13 20 7 11 1015.9 1007.7 0.0
26/10:00am 10.5 6.9 10.5 100 0.0 NW 20 28 11 15 1015.6 1007.3 0.0
26/09:30am 10.5 6.9 10.5 100 0.0 NW 20 28 11 15 1015.5 1007.2 0.0
26/09:00am 10.5 6.9 10.5 100 0.0 NW 20 30 11 16 1015.2 1006.9 2.2
26/08:30am 10.6 6.6 10.6 100 0.0 NW 22 32 12 17 1015.1 1006.8 2.2
26/08:00am 10.3 5.5 10.3 100 0.0 NW 26 33 14 18 1014.6 1006.3 2.0
26/07:30am 10.2 5.4 10.2 100 0.0 NW 26 39 14 21 1014.6 1006.3 2.0
26/07:00am 10.0 4.7 10.0 100 0.0 NNW 28 41 15 22 1014.3 1006.0 2.0
26/06:30am 10.0 4.7 10.0 100 0.0 NNW 28 43 15 23 1014.2 1005.8 2.0
26/06:00am 10.0 4.4 10.0 100 0.0 NNW 30 41 16 22 1014.0 1005.7 2.0
26/05:50am 10.2 5.0 10.2 100 0.0 NNW 28 46 15 25 1014.0 1005.7 2.0
26/05:30am 10.3 4.4 10.3 100 0.0 NW 32 44 17 24 1014.2 1005.8 2.0
26/05:00am 10.5 4.6 10.5 100 0.0 NW 32 46 17 25 1014.2 1005.8 2.0
26/04:37am 10.6 5.5 10.6 100 0.0 NW 28 46 15 25 1014.4 1006.1 2.0
26/04:30am 10.6 5.5 10.6 100 0.0 NW 28 44 15 24 1014.5 1006.2 2.0
26/04:00am 10.7 6.4 10.7 100 0.0 NW 24 41 13 22 1014.9 1006.6 2.0
26/03:30am 10.9 6.3 10.9 100 0.0 NW 26 43 14 23 1014.9 1006.6 2.0
26/03:00am 11.1 6.5 11.1 100 0.0 NW 26 43 14 23 1015.1 1006.8 2.0
26/02:48am 11.1 6.1 11.1 100 0.0 NW 28 46 15 25 1015.2 1006.9 2.0
26/02:30am 11.2 6.6 11.2 100 0.0 NNW 26 41 14 22 1015.5 1007.2 2.0
26/02:00am 11.3 6.0 11.3 100 0.0 NNW 30 41 16 22 1015.7 1007.4 2.0
26/01:30am 11.3 6.0 11.3 100 0.0 NNW 30 44 16 24 1015.8 1007.6 2.0
26/01:00am 11.4 6.5 11.2 99 0.1 NNW 28 35 15 19 1016.1 1007.8 1.8
26/12:30am 11.4 6.8 11.1 98 0.2 NW 26 32 14 17 1016.4 1008.2 1.8
26/12:00am 11.4 6.8 11.1 98 0.2 NW 26 32 14 17 1016.4 1008.2 1.8
 
Date/Time
EDT
Temp
°C
App
Temp
°C
Dew
Point
Rel
Hum
%
Delta-T
°C
Wind Press
QNH
hPa
Press
MSL
hPa
Rain
since 9 am
mm
Dir
 
Spd
km/h
Gust
km/h
Spd
kts
Gust
kts
25/11:30pm 11.5 7.7 11.0 97 0.3 NNW 22 28 12 15 1016.5 1008.3 1.8
25/11:00pm 11.5 8.6 11.0 97 0.3 NNW 17 24 9 13 1017.0 1008.8 1.8
25/10:30pm 11.5 9.3 10.9 96 0.3 NNW 13 17 7 9 1017.5 1009.3 1.8
25/10:00pm 11.4 9.6 10.8 96 0.3 NNW 11 13 6 7 1017.5 1009.3 1.8
25/09:30pm 11.8 10.0 10.9 94 0.5 NNW 11 15 6 8 1017.6 1009.4 1.8
25/09:00pm 11.7 9.5 10.9 95 0.5 NNW 13 17 7 9 1017.9 1009.6 1.8
25/08:30pm 11.9 9.4 11.0 94 0.5 NNW 15 19 8 10 1017.5 1009.3 1.8
25/08:00pm 11.9 9.7 10.8 93 0.6 NNW 13 17 7 9 1017.5 1009.3 1.8
25/07:30pm 12.5 10.1 10.0 85 1.4 NW 13 17 7 9 1017.6 1009.4 1.8
25/07:00pm 13.2 10.7 9.8 80 1.9 NNW 13 17 7 9 1017.6 1009.4 1.8
25/06:30pm 13.5 9.9 9.9 79 2.0 NNW 19 24 10 13 1017.6 1009.4 1.8
25/06:00pm 13.3 10.6 10.5 83 1.6 NNW 15 20 8 11 1018.1 1009.9 1.8
25/05:30pm 12.9 9.4 10.1 83 1.6 NNW 19 28 10 15 1018.1 1009.9 1.8
25/05:00pm 13.5 10.1 10.5 82 1.7 N 19 24 10 13 1018.1 1009.9 1.8
25/04:30pm 13.3 10.3 10.8 85 1.4 N 17 26 9 14 1018.3 1010.1 1.8
25/04:00pm 14.4 11.2 11.2 81 1.9 NNW 19 30 10 16 1018.7 1010.5 1.8
25/03:30pm 13.5 11.4 11.2 86 1.3 NNW 13 22 7 12 1019.0 1010.9 1.8
25/03:00pm 13.8 11.3 11.1 84 1.6 NNW 15 26 8 14 1019.4 1011.2 1.8
25/02:30pm 14.2 11.7 11.2 82 1.7 NW 15 24 8 13 1019.5 1011.4 1.8
25/02:00pm 13.1 10.6 12.2 94 0.5 NNW 17 28 9 15 1019.8 1011.6 1.8
25/01:30pm 12.1 8.7 11.2 94 0.5 NNW 20 32 11 17 1020.1 1012.0 1.8
25/01:00pm 11.6 8.4 11.3 98 0.2 NNW 19 28 10 15 1020.3 1012.2 1.8
25/12:30pm 11.2 7.9 10.9 98 0.2 NNW 19 26 10 14 1020.8 1012.7 1.8
25/12:00pm 11.0 7.6 10.5 97 0.3 NNW 19 28 10 15 1021.1 1013.0 1.8
25/11:30am 11.2 7.3 10.7 97 0.3 NNW 22 33 12 18 1021.1 1013.0 1.8
25/11:00am 11.5 8.7 11.3 99 0.1 NNW 17 26 9 14 1020.9 1012.8 1.8
25/10:30am 10.7 8.5 10.7 100 0.0 NW 13 17 7 9 1020.9 1012.8 1.8
25/10:00am 10.9 9.1 10.7 99 0.1 WNW 11 15 6 8 1020.8 1012.7 1.4

Other Formats:

Comma delimited format used in spreadsheet applications
http://www.bom.gov.au/fwo/IDV60801/IDV60801.94903.axf

JavaScript Object Notation format (JSON) in row-major order
http://www.bom.gov.au/fwo/IDV60801/IDV60801.94903.json